Time;durP1;ratioP1;P1;durP2;ratioP2;P2;SDS_P1;SDS_P2;PMS_P1;PMS_P2;Temp;Humidity;BMP_temperature;BMP_pressure;BME280_temperature;BME280_humidity;BME280_pressure;Samples;Min_cycle;Max_cycle;Signal;HPM_P1;HPM_P2
2022/11/21 00:00:13;;;;;;;16.95;12.85;;;;;;;;;;5077039;28;20047;-70
2022/11/21 00:02:39;;;;;;;16.48;9.35;;;;;;;;;;5070742;28;20339;-69
2022/11/21 00:05:04;;;;;;;9.15;7.13;;;;;;;;;;5078335;28;20036;-71
2022/11/21 00:07:30;;;;;;;12.93;10.00;;;;;;;;;;5074915;28;20492;-69
2022/11/21 00:09:55;;;;;;;11.90;8.27;;;;;;;;;;5073997;28;20077;-71
2022/11/21 00:12:20;;;;;;;9.23;6.53;;;;;;;;;;5075390;28;20024;-69
2022/11/21 00:14:46;;;;;;;9.02;7.22;;;;;;;;;;5078219;28;20028;-72
2022/11/21 00:17:11;;;;;;;11.00;8.50;;;;;;;;;;5069709;28;20112;-70
2022/11/21 00:19:36;;;;;;;21.65;17.23;;;;;;;;;;5075140;28;20122;-70
2022/11/21 00:22:02;;;;;;;26.15;21.90;;;;;;;;;;5078851;28;20063;-69
2022/11/21 00:24:27;;;;;;;19.75;15.73;;;;;;;;;;5078861;28;20064;-70
2022/11/21 00:26:52;;;;;;;22.10;19.02;;;;;;;;;;5071973;28;20062;-69
2022/11/21 00:29:18;;;;;;;23.02;20.65;;;;;;;;;;5070069;28;20028;-69
2022/11/21 00:31:43;;;;;;;17.27;13.70;;;;;;;;;;5076984;28;20028;-69
2022/11/21 00:34:08;;;;;;;21.50;16.33;;;;;;;;;;5073692;28;20034;-69
2022/11/21 00:36:34;;;;;;;41.30;31.48;;;;;;;;;;5078064;28;20032;-70
2022/11/21 00:38:59;;;;;;;31.90;23.83;;;;;;;;;;5079556;28;20020;-71
2022/11/21 00:41:24;;;;;;;43.47;35.78;;;;;;;;;;5078460;28;20028;-71
2022/11/21 00:43:50;;;;;;;42.95;32.45;;;;;;;;;;5080002;28;20099;-71
2022/11/21 00:46:15;;;;;;;39.67;30.25;;;;;;;;;;5071401;28;20020;-72
2022/11/21 00:48:41;;;;;;;13.77;12.20;;;;;;;;;;5068980;28;20028;-70
2022/11/21 00:51:06;;;;;;;20.92;15.35;;;;;;;;;;5076898;28;20039;-71
2022/11/21 00:53:31;;;;;;;17.38;13.75;;;;;;;;;;5076552;28;20347;-69
2022/11/21 00:55:57;;;;;;;21.92;13.88;;;;;;;;;;5076615;28;20035;-69
2022/11/21 00:58:22;;;;;;;12.15;8.88;;;;;;;;;;5069452;28;20032;-69
2022/11/21 01:00:47;;;;;;;13.52;9.70;;;;;;;;;;5071689;28;20028;-69
2022/11/21 01:03:13;;;;;;;14.05;8.57;;;;;;;;;;5067695;28;20435;-73
2022/11/21 01:05:38;;;;;;;4.22;3.65;;;;;;;;;;5075305;28;20038;-70
2022/11/21 01:08:04;;;;;;;1.35;1.10;;;;;;;;;;5073092;28;20024;-70
2022/11/21 01:10:29;;;;;;;1.10;1.00;;;;;;;;;;5069566;28;20027;-70
2022/11/21 01:12:54;;;;;;;2.13;0.80;;;;;;;;;;5071020;28;20443;-70
2022/11/21 01:15:20;;;;;;;4.35;1.50;;;;;;;;;;5073667;28;20024;-72
2022/11/21 01:17:45;;;;;;;3.10;1.58;;;;;;;;;;5070995;28;20024;-72
2022/11/21 01:20:11;;;;;;;2.00;1.48;;;;;;;;;;5055045;28;20028;-71
2022/11/21 01:22:36;;;;;;;3.42;1.42;;;;;;;;;;5055314;28;20036;-72
2022/11/21 01:25:02;;;;;;;2.58;1.95;;;;;;;;;;5051994;28;20090;-71
2022/11/21 01:27:27;;;;;;;2.67;2.13;;;;;;;;;;5058448;28;20390;-73
2022/11/21 01:29:52;;;;;;;2.42;1.73;;;;;;;;;;5054735;28;20078;-71
2022/11/21 01:32:17;;;;;;;2.30;1.80;;;;;;;;;;5050513;28;20028;-72
2022/11/21 01:34:43;;;;;;;2.70;1.50;;;;;;;;;;5049902;28;20100;-73
2022/11/21 01:37:08;;;;;;;2.67;1.80;;;;;;;;;;5057533;28;20064;-71
2022/11/21 01:39:34;;;;;;;6.05;4.60;;;;;;;;;;5055048;28;20033;-71
2022/11/21 01:41:59;;;;;;;7.05;5.32;;;;;;;;;;5050878;28;20055;-72
2022/11/21 01:44:26;;;;;;;4.85;4.13;;;;;;;;;;5053545;28;20036;-71
2022/11/21 01:46:51;;;;;;;3.38;2.60;;;;;;;;;;5053688;28;20032;-72
2022/11/21 01:49:19;;;;;;;2.55;2.20;;;;;;;;;;5046710;28;20356;-71
2022/11/21 01:51:45;;;;;;;1.42;1.20;;;;;;;;;;5050700;28;20078;-71
2022/11/21 01:54:15;;;;;;;2.45;2.05;;;;;;;;;;5055645;28;20040;-71
2022/11/21 01:57:04;;;;;;;1.70;1.60;;;;;;;;;;5054018;28;20028;-71
2022/11/21 01:59:37;;;;;;;2.38;2.05;;;;;;;;;;5054512;28;20115;-71
2022/11/21 02:02:03;;;;;;;1.70;1.55;;;;;;;;;;5055209;28;20502;-71
2022/11/21 02:04:30;;;;;;;1.55;1.45;;;;;;;;;;5049269;28;20033;-71
2022/11/21 02:06:56;;;;;;;2.15;1.92;;;;;;;;;;5052802;28;20033;-71
2022/11/21 02:09:21;;;;;;;2.03;1.48;;;;;;;;;;5048990;28;20024;-71
2022/11/21 02:11:58;;;;;;;2.90;2.38;;;;;;;;;;5050777;28;20063;-71
2022/11/21 02:14:24;;;;;;;2.60;2.10;;;;;;;;;;5054710;28;20112;-72
2022/11/21 02:16:50;;;;;;;2.20;1.77;;;;;;;;;;5046883;28;20099;-72
2022/11/21 02:19:25;;;;;;;2.25;1.80;;;;;;;;;;5059723;28;20048;-70
2022/11/21 02:21:54;;;;;;;1.85;1.70;;;;;;;;;;5071577;28;20040;-71
2022/11/21 02:24:41;;;;;;;3.15;1.80;;;;;;;;;;5071554;28;20020;-71
2022/11/21 02:27:07;;;;;;;2.28;1.95;;;;;;;;;;5073205;28;20028;-70
2022/11/21 02:29:32;;;;;;;2.92;1.90;;;;;;;;;;5075922;28;20044;-70
2022/11/21 02:31:59;;;;;;;3.22;1.55;;;;;;;;;;5074317;28;20025;-70
2022/11/21 02:34:24;;;;;;;2.47;2.10;;;;;;;;;;5066958;28;20020;-70
2022/11/21 02:36:49;;;;;;;1.83;1.30;;;;;;;;;;5068911;28;20047;-71
2022/11/21 02:39:18;;;;;;;3.50;1.52;;;;;;;;;;5070081;28;20130;-69
2022/11/21 02:41:47;;;;;;;1.38;1.27;;;;;;;;;;5065480;28;20036;-70
2022/11/21 02:44:21;;;;;;;1.73;1.17;;;;;;;;;;5069873;28;20635;-71
2022/11/21 02:46:48;;;;;;;1.65;1.52;;;;;;;;;;5067578;28;20047;-70
2022/11/21 02:49:15;;;;;;;1.70;1.30;;;;;;;;;;5075573;28;20039;-71
2022/11/21 02:51:41;;;;;;;2.15;1.80;;;;;;;;;;5074752;28;20028;-70
2022/11/21 02:54:06;;;;;;;2.65;1.80;;;;;;;;;;5065638;28;20466;-70
2022/11/21 02:56:31;;;;;;;2.13;1.50;;;;;;;;;;5068047;28;20031;-71
2022/11/21 02:58:57;;;;;;;1.35;1.25;;;;;;;;;;5065212;28;20070;-71
2022/11/21 03:01:22;;;;;;;2.80;1.20;;;;;;;;;;5066845;28;20035;-71
2022/11/21 03:03:47;;;;;;;2.15;1.77;;;;;;;;;;5064175;28;20294;-70
2022/11/21 03:06:12;;;;;;;1.42;1.30;;;;;;;;;;5067081;28;20080;-73
2022/11/21 03:08:38;;;;;;;1.00;1.00;;;;;;;;;;5065752;28;20104;-71
2022/11/21 03:11:04;;;;;;;1.05;0.80;;;;;;;;;;5066820;28;20114;-71
2022/11/21 03:13:29;;;;;;;1.10;1.00;;;;;;;;;;5070259;28;20115;-71
2022/11/21 03:15:55;;;;;;;0.80;0.80;;;;;;;;;;5073114;28;20052;-71
2022/11/21 03:18:20;;;;;;;0.95;0.95;;;;;;;;;;5076890;28;20043;-70
2022/11/21 03:20:45;;;;;;;1.10;1.00;;;;;;;;;;5077491;28;20052;-71
2022/11/21 03:23:11;;;;;;;8.40;1.40;;;;;;;;;;5076880;28;20024;-71
2022/11/21 03:25:36;;;;;;;2.25;1.52;;;;;;;;;;5074361;28;20032;-71
2022/11/21 03:28:01;;;;;;;1.30;1.20;;;;;;;;;;5078322;28;20073;-71
2022/11/21 03:30:27;;;;;;;1.20;1.10;;;;;;;;;;5079351;28;20044;-71
2022/11/21 03:32:56;;;;;;;2.35;1.40;;;;;;;;;;5073245;28;20348;-71
2022/11/21 03:35:21;;;;;;;1.08;1.00;;;;;;;;;;5077138;28;20031;-70
2022/11/21 03:37:47;;;;;;;1.02;0.68;;;;;;;;;;5078249;28;20028;-70
2022/11/21 03:40:12;;;;;;;1.63;0.60;;;;;;;;;;5077592;28;20036;-71
2022/11/21 03:42:37;;;;;;;0.85;0.70;;;;;;;;;;5079914;28;20028;-71
2022/11/21 03:45:03;;;;;;;0.75;0.70;;;;;;;;;;5071374;28;20054;-70
2022/11/21 03:47:28;;;;;;;1.00;0.88;;;;;;;;;;5080279;28;20072;-71
2022/11/21 03:49:54;;;;;;;1.20;1.00;;;;;;;;;;5079990;28;20040;-70
2022/11/21 03:52:19;;;;;;;1.20;1.10;;;;;;;;;;5080141;28;20099;-70
2022/11/21 03:54:45;;;;;;;1.75;1.17;;;;;;;;;;5079191;28;20095;-71
2022/11/21 03:57:10;;;;;;;1.00;1.00;;;;;;;;;;5076609;28;20065;-71
2022/11/21 03:59:35;;;;;;;0.98;0.70;;;;;;;;;;5080963;28;20085;-71
2022/11/21 04:02:01;;;;;;;1.20;0.90;;;;;;;;;;5073231;28;20036;-72
2022/11/21 04:04:26;;;;;;;0.73;0.70;;;;;;;;;;5074181;28;20337;-70
2022/11/21 04:06:51;;;;;;;0.88;0.88;;;;;;;;;;5080366;28;20039;-70
2022/11/21 04:09:17;;;;;;;1.13;1.02;;;;;;;;;;5079212;28;20043;-70
2022/11/21 04:11:42;;;;;;;2.05;0.73;;;;;;;;;;5078802;28;20068;-70
2022/11/21 04:14:07;;;;;;;1.27;1.00;;;;;;;;;;5080423;28;20105;-71
2022/11/21 04:16:32;;;;;;;1.38;0.80;;;;;;;;;;5078589;28;20021;-71
2022/11/21 04:18:58;;;;;;;0.80;0.80;;;;;;;;;;5076634;28;20044;-70
2022/11/21 04:21:23;;;;;;;1.50;1.38;;;;;;;;;;5074314;28;20118;-70
2022/11/21 04:23:48;;;;;;;2.85;1.63;;;;;;;;;;5079569;28;20024;-69
2022/11/21 04:26:14;;;;;;;2.25;1.80;;;;;;;;;;5079832;28;20115;-71
2022/11/21 04:28:39;;;;;;;4.13;3.17;;;;;;;;;;5071234;28;20107;-70
2022/11/21 04:31:05;;;;;;;2.72;2.22;;;;;;;;;;5074280;28;20036;-71
2022/11/21 04:33:31;;;;;;;2.75;2.45;;;;;;;;;;5080079;28;20438;-70
2022/11/21 04:35:56;;;;;;;3.50;2.90;;;;;;;;;;5075551;28;20046;-69
2022/11/21 04:38:21;;;;;;;2.50;2.30;;;;;;;;;;5072977;28;20077;-71
2022/11/21 04:40:47;;;;;;;2.13;1.75;;;;;;;;;;5062476;28;20036;-71
2022/11/21 04:43:12;;;;;;;2.25;2.05;;;;;;;;;;5076451;28;20051;-72
2022/11/21 04:45:37;;;;;;;2.20;1.85;;;;;;;;;;5073705;28;20435;-71
2022/11/21 04:48:03;;;;;;;1.25;1.13;;;;;;;;;;5078866;28;20112;-72
2022/11/21 04:50:28;;;;;;;2.47;1.60;;;;;;;;;;5079485;28;20028;-71
2022/11/21 04:52:55;;;;;;;1.95;1.85;;;;;;;;;;5079114;28;20320;-71
2022/11/21 04:55:21;;;;;;;1.63;1.10;;;;;;;;;;5077384;28;20024;-71
2022/11/21 04:57:46;;;;;;;1.92;1.30;;;;;;;;;;5068521;28;20028;-72
2022/11/21 05:00:12;;;;;;;1.60;1.50;;;;;;;;;;5068572;28;20032;-72
2022/11/21 05:02:38;;;;;;;1.80;1.70;;;;;;;;;;5076148;28;20032;-72
2022/11/21 05:05:03;;;;;;;1.15;1.00;;;;;;;;;;5076478;28;20034;-71
2022/11/21 05:07:29;;;;;;;1.98;1.25;;;;;;;;;;5076541;28;20497;-72
2022/11/21 05:09:54;;;;;;;2.40;2.20;;;;;;;;;;5079246;28;20032;-74
2022/11/21 05:15:03;;;;;;;1.20;1.10;;;;;;;;;;5080799;28;20070;-73
2022/11/21 05:17:28;;;;;;;2.85;2.50;;;;;;;;;;5081150;28;20403;-73
2022/11/21 05:19:54;;;;;;;2.67;2.47;;;;;;;;;;5075343;28;20047;-71
2022/11/21 05:22:19;;;;;;;3.20;2.90;;;;;;;;;;5075265;28;20043;-70
2022/11/21 05:24:45;;;;;;;2.20;2.00;;;;;;;;;;5078481;28;20028;-71
2022/11/21 05:27:10;;;;;;;3.83;3.40;;;;;;;;;;5078884;28;20066;-70
2022/11/21 05:29:35;;;;;;;3.10;2.80;;;;;;;;;;5076096;28;20055;-71
2022/11/21 05:32:01;;;;;;;3.83;1.95;;;;;;;;;;5061933;28;21269;-72
2022/11/21 05:34:26;;;;;;;2.55;1.90;;;;;;;;;;5079083;28;20119;-72
2022/11/21 05:36:55;;;;;;;6.07;3.63;;;;;;;;;;5078852;28;20062;-72
2022/11/21 05:39:21;;;;;;;5.38;3.30;;;;;;;;;;5077306;28;20024;-71
2022/11/21 05:41:46;;;;;;;9.90;6.30;;;;;;;;;;5078906;28;20046;-73
2022/11/21 05:44:12;;;;;;;5.07;3.92;;;;;;;;;;5079150;28;20062;-73
2022/11/21 05:46:37;;;;;;;4.13;3.50;;;;;;;;;;5068479;28;20030;-73
2022/11/21 05:49:02;;;;;;;5.65;4.93;;;;;;;;;;5078452;28;20024;-73
2022/11/21 05:51:28;;;;;;;3.25;2.60;;;;;;;;;;5079159;28;20119;-72
2022/11/21 05:53:53;;;;;;;1.20;1.10;;;;;;;;;;5071919;28;20016;-73
2022/11/21 05:56:18;;;;;;;2.13;1.92;;;;;;;;;;5067232;28;20471;-71
2022/11/21 05:58:44;;;;;;;1.45;1.33;;;;;;;;;;5065283;28;20039;-73
2022/11/21 06:01:10;;;;;;;2.03;1.55;;;;;;;;;;5072952;28;20500;-72
2022/11/21 06:03:37;;;;;;;1.40;1.30;;;;;;;;;;5082055;28;20130;-74
2022/11/21 06:06:03;;;;;;;1.70;1.60;;;;;;;;;;5079234;28;20028;-72
2022/11/21 06:08:30;;;;;;;2.88;2.00;;;;;;;;;;5072775;28;20030;-73
2022/11/21 06:10:55;;;;;;;6.47;4.53;;;;;;;;;;5069873;28;20402;-72
2022/11/21 06:13:21;;;;;;;4.15;3.22;;;;;;;;;;5077676;28;20020;-74
2022/11/21 06:15:47;;;;;;;2.25;2.00;;;;;;;;;;5068773;28;20069;-73
2022/11/21 06:18:12;;;;;;;12.07;10.38;;;;;;;;;;5063823;28;20105;-73
2022/11/21 06:20:37;;;;;;;3.58;3.05;;;;;;;;;;5047140;28;20036;-73
2022/11/21 06:23:03;;;;;;;4.13;3.70;;;;;;;;;;5047361;28;20082;-73
2022/11/21 06:25:28;;;;;;;7.28;6.43;;;;;;;;;;5048604;28;20021;-71
2022/11/21 06:27:54;;;;;;;4.75;4.28;;;;;;;;;;5056455;28;20028;-72
2022/11/21 06:30:20;;;;;;;5.00;3.97;;;;;;;;;;5058290;28;20028;-74
2022/11/21 06:32:45;;;;;;;3.70;3.40;;;;;;;;;;5057417;28;20459;-74
2022/11/21 06:35:10;;;;;;;2.35;1.40;;;;;;;;;;5057622;28;20450;-74
2022/11/21 06:37:36;;;;;;;6.80;6.20;;;;;;;;;;5059278;28;20086;-75
2022/11/21 06:40:01;;;;;;;4.72;4.15;;;;;;;;;;5058114;28;20040;-72
2022/11/21 06:42:31;;;;;;;4.25;3.40;;;;;;;;;;5059577;28;20447;-73
2022/11/21 06:44:56;;;;;;;;;;;;;;;;;;5059582;28;20024;-73
2022/11/21 06:47:21;;;;;;;8.30;6.83;;;;;;;;;;5058847;28;19919;-72
2022/11/21 06:49:47;;;;;;;5.40;4.72;;;;;;;;;;5057516;28;20063;-72
2022/11/21 06:52:12;;;;;;;6.97;6.20;;;;;;;;;;5058092;28;20063;-72
2022/11/21 06:54:37;;;;;;;8.38;7.07;;;;;;;;;;5058810;28;20020;-72
2022/11/21 06:57:03;;;;;;;9.20;8.25;;;;;;;;;;5046205;28;20328;-71
2022/11/21 06:59:28;;;;;;;36.47;32.72;;;;;;;;;;5043787;28;20020;-73
2022/11/21 07:01:54;;;;;;;22.23;19.42;;;;;;;;;;5048728;28;20429;-73
2022/11/21 07:04:19;;;;;;;27.80;21.55;;;;;;;;;;5044383;28;20095;-72
2022/11/21 07:06:44;;;;;;;18.20;14.30;;;;;;;;;;5057743;28;20028;-72
2022/11/21 07:09:10;;;;;;;39.75;31.90;;;;;;;;;;5055440;28;20020;-73
2022/11/21 07:11:35;;;;;;;25.38;22.65;;;;;;;;;;5061218;28;20032;-71
2022/11/21 07:14:00;;;;;;;15.75;13.63;;;;;;;;;;5063291;28;20033;-71
2022/11/21 07:16:29;;;;;;;7.07;5.70;;;;;;;;;;5060924;28;20020;-71
2022/11/21 07:18:54;;;;;;;32.22;24.52;;;;;;;;;;5069060;28;20044;-73
2022/11/21 07:21:20;;;;;;;79.95;57.83;;;;;;;;;;5080296;28;20028;-72
2022/11/21 07:23:45;;;;;;;44.55;33.67;;;;;;;;;;5082839;28;20034;-71
2022/11/21 07:26:11;;;;;;;20.05;14.77;;;;;;;;;;5081631;28;20028;-71
2022/11/21 07:28:36;;;;;;;37.83;33.97;;;;;;;;;;5082272;28;20080;-71
2022/11/21 07:31:02;;;;;;;29.33;24.90;;;;;;;;;;5082590;28;20096;-71
2022/11/21 07:33:28;;;;;;;25.48;19.05;;;;;;;;;;5082608;28;20024;-71
2022/11/21 07:35:56;;;;;;;30.70;27.48;;;;;;;;;;5079830;28;20027;-72
2022/11/21 07:38:22;;;;;;;23.52;18.52;;;;;;;;;;5080770;28;20028;-72
2022/11/21 07:40:48;;;;;;;27.95;24.63;;;;;;;;;;5081120;28;20031;-73
2022/11/21 07:43:13;;;;;;;12.80;10.05;;;;;;;;;;5077034;28;20031;-73
2022/11/21 07:45:38;;;;;;;14.45;12.85;;;;;;;;;;5070203;28;20089;-72
2022/11/21 07:48:04;;;;;;;34.63;29.23;;;;;;;;;;5070721;28;21119;-72
2022/11/21 07:50:30;;;;;;;20.25;15.05;;;;;;;;;;5070590;28;20036;-73
2022/11/21 07:52:57;;;;;;;35.42;28.33;;;;;;;;;;5069323;28;20043;-72
2022/11/21 07:55:23;;;;;;;33.80;27.90;;;;;;;;;;5070309;28;20517;-72
2022/11/21 07:57:55;;;;;;;46.22;36.03;;;;;;;;;;5070255;28;20115;-73
2022/11/21 08:00:21;;;;;;;48.72;32.15;;;;;;;;;;5069844;28;20089;-72
2022/11/21 08:02:46;;;;;;;104.22;73.13;;;;;;;;;;5070411;28;20840;-72
2022/11/21 08:05:11;;;;;;;138.95;93.00;;;;;;;;;;5070653;28;20020;-72
2022/11/21 08:07:37;;;;;;;57.30;41.53;;;;;;;;;;5070371;28;20020;-72
2022/11/21 08:10:02;;;;;;;56.83;43.80;;;;;;;;;;5070036;28;20016;-71
2022/11/21 08:12:28;;;;;;;64.07;47.50;;;;;;;;;;5070201;28;20450;-72
2022/11/21 08:14:53;;;;;;;88.63;66.35;;;;;;;;;;5070296;28;21392;-72
2022/11/21 08:17:18;;;;;;;15.05;12.60;;;;;;;;;;5068961;28;20031;-71
2022/11/21 08:19:44;;;;;;;23.80;21.30;;;;;;;;;;5069864;28;20044;-72
2022/11/21 08:22:09;;;;;;;34.55;30.02;;;;;;;;;;5069115;28;20114;-73
2022/11/21 08:24:34;;;;;;;44.95;38.45;;;;;;;;;;5069420;28;20110;-72
2022/11/21 08:27:00;;;;;;;29.33;25.13;;;;;;;;;;5069977;28;20055;-71
2022/11/21 08:29:25;;;;;;;27.55;22.80;;;;;;;;;;5069588;28;20512;-72
2022/11/21 08:31:51;;;;;;;7.53;6.82;;;;;;;;;;5068334;28;20032;-70
2022/11/21 08:34:17;;;;;;;21.80;19.67;;;;;;;;;;5069805;28;20035;-71
2022/11/21 08:36:42;;;;;;;20.73;18.63;;;;;;;;;;5068392;28;20085;-72
2022/11/21 08:39:07;;;;;;;8.68;7.70;;;;;;;;;;5069956;28;20028;-71
2022/11/21 08:44:16;;;;;;;18.38;16.38;;;;;;;;;;5069328;28;20038;-73
2022/11/21 08:46:42;;;;;;;28.80;22.20;;;;;;;;;;5069425;28;20032;-72
2022/11/21 08:49:07;;;;;;;6.30;5.72;;;;;;;;;;5069093;28;20063;-73
2022/11/21 08:51:33;;;;;;;76.53;57.38;;;;;;;;;;5068013;28;20088;-72
2022/11/21 08:53:59;;;;;;;35.20;30.98;;;;;;;;;;5069815;28;20038;-71
2022/11/21 08:56:24;;;;;;;64.72;42.45;;;;;;;;;;5068408;28;20430;-72
2022/11/21 08:58:50;;;;;;;38.92;33.25;;;;;;;;;;5069478;28;20028;-73
2022/11/21 09:01:15;;;;;;;12.38;11.20;;;;;;;;;;5069151;28;20101;-73
2022/11/21 09:03:40;;;;;;;9.00;8.13;;;;;;;;;;5068884;28;20930;-74
2022/11/21 09:06:06;;;;;;;3.22;3.03;;;;;;;;;;5068889;28;20470;-72
2022/11/21 09:08:32;;;;;;;9.02;8.23;;;;;;;;;;5068950;28;20031;-71
2022/11/21 09:11:02;;;;;;;23.77;21.40;;;;;;;;;;5068207;28;20067;-72
2022/11/21 09:13:28;;;;;;;9.80;8.90;;;;;;;;;;5068270;28;20023;-71
2022/11/21 09:18:38;;;;;;;76.18;62.00;;;;;;;;;;5067975;28;20221;-71
2022/11/21 09:21:03;;;;;;;73.88;55.42;;;;;;;;;;5067743;28;21873;-74
2022/11/21 09:23:29;;;;;;;13.20;11.45;;;;;;;;;;5068174;28;20067;-72
2022/11/21 09:25:55;;;;;;;13.90;12.50;;;;;;;;;;5068382;28;20494;-71
2022/11/21 09:28:20;;;;;;;17.08;15.27;;;;;;;;;;5067058;28;20038;-72
2022/11/21 09:30:45;;;;;;;23.95;19.75;;;;;;;;;;5067991;28;20371;-69
2022/11/21 09:33:12;;;;;;;26.92;19.67;;;;;;;;;;5068817;28;20032;-70
2022/11/21 09:35:38;;;;;;;33.33;27.25;;;;;;;;;;5067980;28;20052;-73
2022/11/21 09:38:04;;;;;;;104.60;72.53;;;;;;;;;;5068368;28;20062;-73
2022/11/21 09:40:29;;;;;;;83.95;61.15;;;;;;;;;;5067109;28;20097;-71
2022/11/21 09:43:14;;;;;;;47.17;40.47;;;;;;;;;;5067730;28;20028;-72
2022/11/21 09:45:47;;;;;;;15.90;12.50;;;;;;;;;;5067843;28;20738;-71
2022/11/21 09:48:31;;;;;;;41.90;31.98;;;;;;;;;;5066877;28;20052;-72
2022/11/21 09:51:00;;;;;;;94.18;64.32;;;;;;;;;;5067150;28;20028;-72
2022/11/21 09:53:37;;;;;;;38.63;26.17;;;;;;;;;;5067576;28;20107;-71
2022/11/21 09:56:07;;;;;;;176.85;112.95;;;;;;;;;;5066052;28;20371;-72
2022/11/21 09:58:36;;;;;;;32.65;19.67;;;;;;;;;;5068488;28;20024;-71
2022/11/21 10:01:01;;;;;;;47.40;36.47;;;;;;;;;;5068072;28;20093;-71
2022/11/21 10:03:29;;;;;;;6.68;5.57;;;;;;;;;;5067742;28;20040;-71
2022/11/21 10:06:03;;;;;;;25.77;21.35;;;;;;;;;;5068130;28;20023;-73
2022/11/21 10:08:46;;;;;;;53.00;40.88;;;;;;;;;;5066822;28;20419;-72
2022/11/21 10:11:30;;;;;;;39.65;28.17;;;;;;;;;;5068506;28;20047;-71
2022/11/21 10:14:10;;;;;;;18.55;11.27;;;;;;;;;;5068212;28;20519;-71
2022/11/21 10:16:44;;;;;;;27.10;19.20;;;;;;;;;;5068381;28;20071;-71
2022/11/21 10:19:28;;;;;;;11.25;9.30;;;;;;;;;;5067934;28;20060;-71
2022/11/21 10:22:16;;;;;;;10.48;8.90;;;;;;;;;;5067738;28;20024;-73
2022/11/21 10:24:41;;;;;;;16.38;14.55;;;;;;;;;;5067186;28;20459;-71
2022/11/21 10:27:15;;;;;;;7.57;6.78;;;;;;;;;;5064736;28;20028;-75
2022/11/21 10:29:44;;;;;;;8.15;7.45;;;;;;;;;;5064771;28;20055;-70
2022/11/21 10:32:23;;;;;;;9.32;8.43;;;;;;;;;;5067072;28;20036;-71
2022/11/21 10:34:50;;;;;;;37.45;30.75;;;;;;;;;;5067763;28;20031;-70
2022/11/21 10:37:23;;;;;;;46.45;37.92;;;;;;;;;;5068247;28;20048;-70
2022/11/21 10:39:49;;;;;;;40.83;32.47;;;;;;;;;;5067757;28;20024;-73
2022/11/21 10:42:21;;;;;;;20.50;16.17;;;;;;;;;;5052474;28;20035;-73
2022/11/21 10:47:32;;;;;;;31.10;26.58;;;;;;;;;;5070296;28;20115;-72
2022/11/21 10:50:18;;;;;;;15.07;13.48;;;;;;;;;;5071239;28;20028;-72
2022/11/21 10:52:54;;;;;;;18.42;15.07;;;;;;;;;;5047149;28;20044;-71
2022/11/21 10:55:20;;;;;;;20.35;18.23;;;;;;;;;;5071292;28;20404;-71
2022/11/21 10:57:47;;;;;;;21.75;19.45;;;;;;;;;;5053882;28;20064;-71
2022/11/21 11:00:14;;;;;;;7.80;7.10;;;;;;;;;;5071136;28;20032;-72
2022/11/21 11:02:59;;;;;;;20.33;13.82;;;;;;;;;;5054060;28;20347;-72
2022/11/21 11:05:28;;;;;;;17.92;13.15;;;;;;;;;;5070595;28;20030;-70
2022/11/21 11:08:03;;;;;;;21.33;17.80;;;;;;;;;;5071464;28;20056;-71
2022/11/21 11:10:30;;;;;;;14.98;12.55;;;;;;;;;;5070834;28;20035;-72
2022/11/21 11:16:03;;;;;;;19.23;16.55;;;;;;;;;;5070912;28;20080;-72
2022/11/21 11:18:30;;;;;;;30.25;22.50;;;;;;;;;;5062484;28;20043;-71
2022/11/21 11:21:08;;;;;;;30.75;22.33;;;;;;;;;;5070888;28;20038;-75
2022/11/21 11:23:34;;;;;;;15.95;13.60;;;;;;;;;;5073838;28;20035;-71
2022/11/21 11:25:59;;;;;;;23.80;19.25;;;;;;;;;;5070267;28;20036;-72
2022/11/21 11:28:25;;;;;;;17.80;14.98;;;;;;;;;;5077416;28;20039;-72
2022/11/21 11:30:52;;;;;;;38.50;25.65;;;;;;;;;;5084540;28;20036;-72
2022/11/21 11:33:46;;;;;;;19.90;17.05;;;;;;;;;;5082341;28;20024;-71
2022/11/21 11:36:15;;;;;;;36.10;26.52;;;;;;;;;;5069877;28;20100;-73
2022/11/21 11:38:42;;;;;;;31.55;24.10;;;;;;;;;;5070176;28;20342;-70
2022/11/21 11:41:26;;;;;;;27.42;21.30;;;;;;;;;;5082469;28;20435;-73
2022/11/21 11:53:00;;;;;;;31.85;25.55;;;;;;;;;;5078422;28;20462;-70
2022/11/21 11:55:31;;;;;;;23.15;18.10;;;;;;;;;;5066123;28;20096;-72
2022/11/21 11:57:59;;;;;;;33.65;26.20;;;;;;;;;;5082299;28;20077;-72
2022/11/21 12:00:24;;;;;;;31.52;25.50;;;;;;;;;;5079577;28;20026;-70
2022/11/21 12:02:50;;;;;;;22.75;19.30;;;;;;;;;;5079578;28;20024;-71
2022/11/21 12:05:25;;;;;;;43.42;32.03;;;;;;;;;;5081189;28;20347;-70
2022/11/21 12:07:59;;;;;;;15.85;14.13;;;;;;;;;;5079302;28;20430;-70
2022/11/21 12:10:32;;;;;;;15.68;14.07;;;;;;;;;;5079298;28;20036;-69
2022/11/21 12:13:05;;;;;;;22.40;17.20;;;;;;;;;;5080714;28;20359;-71
2022/11/21 12:15:51;;;;;;;9.13;8.32;;;;;;;;;;5081084;28;20028;-71
2022/11/21 12:18:22;;;;;;;31.45;22.85;;;;;;;;;;5081761;28;20083;-70
2022/11/21 12:21:02;;;;;;;14.07;12.02;;;;;;;;;;5080647;28;20036;-72
2022/11/21 12:23:32;;;;;;;38.75;28.95;;;;;;;;;;5081912;28;20032;-69
2022/11/21 12:25:57;;;;;;;;;;;;;;;;;;5080537;28;20166;-69
2022/11/21 12:28:33;;;;;;;23.10;15.87;;;;;;;;;;5082388;28;19998;-70
2022/11/21 12:31:06;;;;;;;17.10;15.27;;;;;;;;;;5079782;28;20031;-69
2022/11/21 12:33:33;;;;;;;22.83;16.00;;;;;;;;;;5079515;28;20027;-72
2022/11/21 12:36:17;;;;;;;12.48;8.60;;;;;;;;;;5076274;28;20031;-69
2022/11/21 12:38:42;;;;;;;13.90;12.50;;;;;;;;;;5079533;28;20024;-69
2022/11/21 12:44:30;;;;;;;17.63;15.82;;;;;;;;;;5080672;28;20106;-69
2022/11/21 12:46:56;;;;;;;16.88;15.30;;;;;;;;;;5081774;28;20135;-70
2022/11/21 12:55:27;;;;;;;8.60;7.90;;;;;;;;;;5075528;28;20078;-70
2022/11/21 12:58:01;;;;;;;9.82;6.82;;;;;;;;;;5075094;28;20047;-71
2022/11/21 13:00:29;;;;;;;7.45;6.78;;;;;;;;;;5080741;28;20050;-72
2022/11/21 13:03:09;;;;;;;25.85;23.35;;;;;;;;;;5079092;28;20032;-72
2022/11/21 13:05:36;;;;;;;15.88;14.27;;;;;;;;;;5080513;28;20036;-70
2022/11/21 13:08:07;;;;;;;10.80;9.18;;;;;;;;;;5081088;28;20036;-70
2022/11/21 13:10:32;;;;;;;24.48;21.75;;;;;;;;;;5075210;28;20027;-72
2022/11/21 13:13:09;;;;;;;21.40;18.70;;;;;;;;;;5072689;28;20093;-69
2022/11/21 13:15:42;;;;;;;22.90;20.50;;;;;;;;;;5076503;28;20024;-69
2022/11/21 13:18:18;;;;;;;24.73;22.23;;;;;;;;;;5074151;28;20131;-69
2022/11/21 13:20:48;;;;;;;17.90;16.13;;;;;;;;;;5079000;28;20036;-70
2022/11/21 13:23:31;;;;;;;15.35;13.85;;;;;;;;;;5080772;28;20043;-70
2022/11/21 13:25:57;;;;;;;15.00;13.38;;;;;;;;;;5079291;28;20039;-71
2022/11/21 13:28:27;;;;;;;15.23;13.80;;;;;;;;;;5081132;28;20024;-70
2022/11/21 13:30:54;;;;;;;15.98;13.30;;;;;;;;;;5081075;28;20034;-70
2022/11/21 13:33:34;;;;;;;7.70;6.95;;;;;;;;;;5081958;28;20440;-70
2022/11/21 13:36:09;;;;;;;42.78;38.13;;;;;;;;;;5080810;28;20042;-70
2022/11/21 13:38:50;;;;;;;15.60;14.07;;;;;;;;;;5071568;28;20443;-71
2022/11/21 13:44:29;;;;;;;27.00;24.15;;;;;;;;;;5067806;28;20035;-72
2022/11/21 13:47:11;;;;;;;15.30;13.73;;;;;;;;;;5078323;28;20035;-70
2022/11/21 13:49:42;;;;;;;7.22;6.63;;;;;;;;;;5075299;28;20032;-70
2022/11/21 13:52:26;;;;;;;15.77;12.25;;;;;;;;;;5068848;28;20032;-71
2022/11/21 13:54:53;;;;;;;20.27;17.27;;;;;;;;;;5067220;28;20071;-75
2022/11/21 13:57:34;;;;;;;12.40;11.10;;;;;;;;;;5075141;28;20024;-70
2022/11/21 14:00:18;;;;;;;30.80;22.10;;;;;;;;;;5073074;28;20112;-71
2022/11/21 14:03:13;;;;;;;32.50;22.77;;;;;;;;;;5050041;28;20331;-71
2022/11/21 14:05:44;;;;;;;16.27;12.85;;;;;;;;;;4989703;28;20048;-71
2022/11/21 14:08:11;;;;;;;18.13;13.35;;;;;;;;;;4989291;28;20096;-72
2022/11/21 14:10:36;;;;;;;25.48;19.98;;;;;;;;;;4992422;28;20205;-69
2022/11/21 14:13:02;;;;;;;27.02;19.45;;;;;;;;;;4994186;28;20481;-71
2022/11/21 14:15:41;;;;;;;29.73;21.50;;;;;;;;;;4988445;28;20053;-69
2022/11/21 14:18:18;;;;;;;39.67;27.63;;;;;;;;;;4996136;28;20128;-70
2022/11/21 14:20:59;;;;;;;49.38;32.78;;;;;;;;;;5000276;28;20087;-70
2022/11/21 14:23:27;;;;;;;27.42;20.88;;;;;;;;;;4998781;28;20121;-68
2022/11/21 14:25:52;;;;;;;58.88;38.38;;;;;;;;;;4999520;28;20115;-69
2022/11/21 14:28:31;;;;;;;64.07;46.58;;;;;;;;;;4998146;28;20045;-68
2022/11/21 14:31:06;;;;;;;54.08;37.17;;;;;;;;;;4998892;28;20041;-69
2022/11/21 14:33:36;;;;;;;46.25;34.55;;;;;;;;;;4998529;28;20085;-69
2022/11/21 14:36:07;;;;;;;64.20;46.05;;;;;;;;;;4997928;28;20058;-72
2022/11/21 14:38:35;;;;;;;79.20;50.15;;;;;;;;;;4999248;28;20512;-69
2022/11/21 14:41:13;;;;;;;35.13;28.10;;;;;;;;;;5004626;28;20065;-68
2022/11/21 14:43:38;;;;;;;45.90;41.05;;;;;;;;;;5078334;28;20428;-71
2022/11/21 14:46:03;;;;;;;62.75;49.08;;;;;;;;;;5076910;28;20039;-69
2022/11/21 14:48:29;;;;;;;42.35;33.25;;;;;;;;;;5077835;28;20043;-70
2022/11/21 14:50:58;;;;;;;23.13;20.63;;;;;;;;;;5078254;28;20032;-69
2022/11/21 14:53:25;;;;;;;39.83;35.30;;;;;;;;;;5077488;28;20025;-72
2022/11/21 14:55:53;;;;;;;37.20;33.30;;;;;;;;;;5077412;28;20233;-69
2022/11/21 14:58:19;;;;;;;57.40;47.85;;;;;;;;;;5078977;28;20031;-70
2022/11/21 15:01:01;;;;;;;66.03;48.75;;;;;;;;;;5076458;28;20024;-67
2022/11/21 15:03:26;;;;;;;127.88;71.82;;;;;;;;;;5079317;28;20036;-69
2022/11/21 15:06:18;;;;;;;125.82;79.70;;;;;;;;;;5076773;28;20027;-69
2022/11/21 15:08:43;;;;;;;212.48;140.05;;;;;;;;;;5071879;28;20914;-69